Lake Village, Nevada
Current Conditions -  °F | °C
As of 1:53 PM on Saturday 25 Oct 2014 (Local Time) from KTVL Reporting Station
Moderate Rain Moderate Rain  
Wind Chill: 38°   Ceiling: 2700
Heat Index: 44°   Visibility: 4mi
Dew Point: 38°   Wind: 12mph
Humidity: 79%   Direction: 180°S
Pressure: 30.09"   Gusts: NA
Location:  39.0164°N, 119.925°W
Report Text: KTVL 252053Z AUTO 18010KT 4SM RA BKN027 OVC033 07/03 A3009 RMK AO2 PK WND 20027/2010 RAB05 SLP153 P0003 60003 T00670033 53017
Loading
Personal Weather Stations






























Interactive Weather Map
Tropical Storm Tracking
New forecast layout! Learn more

10-Day Weather Forecast

Advertisements
Track Severe Weather on mobile